Terminal Aerodrome Forecast
Issued by NWS Corpus Christi, TX

Home | Current Version | Previous Version | Text Only | Print | Product List | Glossary On
Versions: 1 2 3 4 5 6 7 8 9 10 11 12 13
852
FTUS44 KCRP 300529
TAFCRP
TAF
KCRP 300529Z 3006/0106 02010KT P6SM FEW250
     FM010000 10008KT P6SM FEW250=

USA.gov is the U.S. government's official web portal to all federal, state and local government web resources and services.